Time;durP1;ratioP1;P1;durP2;ratioP2;P2;SDS_P1;SDS_P2;PMS_P1;PMS_P2;Temp;Humidity;BMP_temperature;BMP_pressure;BME280_temperature;BME280_humidity;BME280_pressure;Samples;Min_cycle;Max_cycle;Signal;HPM_P1;HPM_P2
2021/10/23 00:00:56;;;;;;;2.47;0.88;;;;;;;17.34;59.30;102510.41;4897481;29;20035;-83
2021/10/23 00:03:21;;;;;;;1.83;1.00;;;;;;;17.35;59.25;102501.72;4881842;29;20029;-84
2021/10/23 00:05:47;;;;;;;2.47;0.90;;;;;;;17.35;59.04;102506.94;4850819;29;20037;-84
2021/10/23 00:08:12;;;;;;;2.95;0.95;;;;;;;17.35;59.10;102507.81;4897371;29;20052;-82
2021/10/23 00:10:39;;;;;;;2.42;1.00;;;;;;;17.35;59.02;102507.81;4851035;29;20092;-82
2021/10/23 00:13:08;;;;;;;3.80;1.02;;;;;;;17.35;58.94;102499.13;4866235;29;20056;-85
2021/10/23 00:15:33;;;;;;;3.08;1.00;;;;;;;17.34;59.15;102500.00;4897124;29;20029;-85
2021/10/23 00:17:58;;;;;;;2.90;1.02;;;;;;;17.33;59.38;102499.09;4881751;29;20036;-80
2021/10/23 00:20:24;;;;;;;2.83;1.13;;;;;;;17.34;59.01;102500.88;4898450;29;20033;-79
2021/10/23 00:22:49;;;;;;;1.90;0.98;;;;;;;17.32;59.00;102494.75;4865392;29;20025;-80
2021/10/23 00:25:15;;;;;;;1.67;0.90;;;;;;;17.33;59.23;102495.63;4881748;29;20447;-82
2021/10/23 00:27:41;;;;;;;3.50;1.10;;;;;;;17.33;59.22;102496.50;4866128;29;20036;-84
2021/10/23 00:30:09;;;;;;;1.63;0.88;;;;;;;17.33;59.27;102504.31;4866105;29;20036;-83
2021/10/23 00:32:36;;;;;;;1.90;1.00;;;;;;;17.34;59.29;102489.59;4866356;29;20024;-85
2021/10/23 00:35:03;;;;;;;2.30;0.95;;;;;;;17.34;59.27;102490.47;4898308;29;20029;-80
2021/10/23 00:37:28;;;;;;;2.92;1.08;;;;;;;17.34;59.37;102484.38;4881939;29;20028;-82
2021/10/23 00:39:57;;;;;;;2.08;0.80;;;;;;;17.33;59.23;102488.69;4850698;29;20102;-85
2021/10/23 00:42:22;;;;;;;2.38;0.75;;;;;;;17.32;59.29;102497.34;4896903;29;20021;-84
2021/10/23 00:44:48;;;;;;;2.38;0.93;;;;;;;17.32;59.58;102494.75;4881297;29;20474;-84
2021/10/23 00:47:19;;;;;;;1.85;0.80;;;;;;;17.32;59.08;102494.75;4865859;29;20063;-84
2021/10/23 00:49:51;;;;;;;2.60;0.70;;;;;;;17.33;59.09;102496.50;4881347;29;20459;-82
2021/10/23 00:52:17;;;;;;;2.35;0.98;;;;;;;17.33;59.28;102491.28;4898213;29;20025;-84
2021/10/23 00:54:42;;;;;;;2.05;0.80;;;;;;;17.33;59.54;102495.63;4897097;29;20035;-85
2021/10/23 00:57:08;;;;;;;2.15;0.80;;;;;;;17.33;59.05;102495.63;4865731;29;20520;-84
2021/10/23 00:59:34;;;;;;;1.90;0.88;;;;;;;17.32;59.03;102491.28;4881205;29;20029;-86
2021/10/23 01:02:00;;;;;;;2.45;0.88;;;;;;;17.32;59.25;102492.16;4881300;29;20385;-85
2021/10/23 01:04:26;;;;;;;2.78;0.90;;;;;;;17.30;58.92;102491.25;4898109;29;20057;-84
2021/10/23 01:06:53;;;;;;;1.63;0.70;;;;;;;17.31;59.17;102497.31;4865693;29;20454;-85
2021/10/23 01:09:19;;;;;;;2.25;0.88;;;;;;;17.31;59.09;102500.81;4881014;29;20036;-84
2021/10/23 01:11:46;;;;;;;1.90;0.88;;;;;;;17.32;59.07;102499.09;4898027;29;20512;-84
2021/10/23 01:14:23;;;;;;;2.35;0.73;;;;;;;17.30;59.18;102496.44;4865849;29;20115;-84
2021/10/23 01:16:50;;;;;;;2.65;0.90;;;;;;;17.31;59.33;102492.13;4881093;29;20032;-84
2021/10/23 01:19:16;;;;;;;2.38;0.90;;;;;;;17.29;59.18;102499.91;4881112;29;20386;-81
2021/10/23 01:21:45;;;;;;;1.70;0.90;;;;;;;17.29;59.15;102499.91;4865574;29;20032;-82
2021/10/23 01:24:10;;;;;;;1.65;0.68;;;;;;;17.26;59.20;102497.25;4880948;29;20503;-83
2021/10/23 01:26:37;;;;;;;2.22;0.82;;;;;;;17.27;59.41;102499.88;4865726;29;20033;-84
2021/10/23 01:29:04;;;;;;;1.90;0.95;;;;;;;17.29;59.32;102505.13;4850882;29;20351;-85
2021/10/23 01:31:29;;;;;;;1.52;0.75;;;;;;;17.26;59.17;102500.72;4897640;29;20486;-84
2021/10/23 01:33:56;;;;;;;1.63;0.70;;;;;;;17.28;59.24;102513.75;4883166;29;20047;-85
2021/10/23 01:36:22;;;;;;;2.33;0.90;;;;;;;17.28;59.22;102511.16;4884575;29;20036;-83
2021/10/23 01:38:47;;;;;;;2.17;0.80;;;;;;;17.28;59.12;102505.97;4869159;29;20028;-82
2021/10/23 01:41:13;;;;;;;1.60;0.80;;;;;;;17.26;59.04;102513.72;4884282;29;20061;-83
2021/10/23 01:43:40;;;;;;;1.85;0.70;;;;;;;17.25;59.15;102501.56;4869158;29;20031;-82
2021/10/23 01:46:06;;;;;;;1.80;0.73;;;;;;;17.24;59.24;102502.41;4884233;29;20478;-81
2021/10/23 01:48:38;;;;;;;1.13;0.60;;;;;;;17.26;59.10;102502.44;4868424;29;20029;-81
2021/10/23 01:51:04;;;;;;;2.97;0.93;;;;;;;17.26;59.04;102505.91;4884043;29;20077;-83
2021/10/23 01:53:34;;;;;;;1.83;0.68;;;;;;;17.26;58.92;102507.66;4884649;29;20060;-82
2021/10/23 01:56:03;;;;;;;1.65;0.80;;;;;;;17.26;59.01;102518.94;4900949;29;20027;-83
2021/10/23 01:58:29;;;;;;;1.38;0.70;;;;;;;17.25;59.18;102532.78;4884625;29;20029;-83
2021/10/23 02:00:55;;;;;;;2.50;0.90;;;;;;;17.26;59.59;102523.25;4901121;29;20024;-84
2021/10/23 02:03:20;;;;;;;2.08;0.80;;;;;;;17.24;59.10;102520.63;4883934;29;20111;-83
2021/10/23 02:05:46;;;;;;;1.65;0.60;;;;;;;17.24;59.20;102515.41;4868438;29;20039;-82
2021/10/23 02:08:12;;;;;;;1.65;0.73;;;;;;;17.24;59.06;102523.22;4883716;29;20048;-82
2021/10/23 02:10:37;;;;;;;1.58;0.80;;;;;;;17.22;59.08;102529.25;4883957;29;20033;-82
2021/10/23 02:13:03;;;;;;;2.10;0.60;;;;;;;17.23;58.88;102529.28;4868004;29;20569;-84
2021/10/23 02:15:28;;;;;;;1.38;0.60;;;;;;;17.24;58.98;102532.75;4868398;29;20036;-84
2021/10/23 02:17:54;;;;;;;0.90;0.60;;;;;;;17.22;59.10;102519.75;4883469;29;20039;-84
2021/10/23 02:20:19;;;;;;;1.38;0.60;;;;;;;17.22;59.10;102513.63;4852688;29;20028;-83
2021/10/23 02:22:45;;;;;;;2.80;0.85;;;;;;;17.22;59.09;102516.25;4852891;29;20084;-83
2021/10/23 02:25:11;;;;;;;1.90;0.73;;;;;;;17.22;59.05;102516.25;4868267;29;20060;-82
2021/10/23 02:27:37;;;;;;;1.77;0.60;;;;;;;17.22;59.00;102517.16;4900340;29;20036;-83
2021/10/23 02:30:08;;;;;;;1.80;0.60;;;;;;;17.22;59.08;102513.63;4899054;29;20120;-84
2021/10/23 02:32:33;;;;;;;2.35;0.80;;;;;;;17.22;59.10;102518.84;4867967;29;20029;-83
2021/10/23 02:34:59;;;;;;;1.25;0.63;;;;;;;17.21;59.03;102519.72;4883171;29;20088;-82
2021/10/23 02:37:25;;;;;;;1.85;0.70;;;;;;;17.21;59.31;102528.38;4883511;29;20089;-84
2021/10/23 02:39:50;;;;;;;2.90;0.90;;;;;;;17.22;58.97;102526.66;4883814;29;20500;-84
2021/10/23 02:42:16;;;;;;;2.10;0.73;;;;;;;17.22;59.24;102526.66;4852394;29;20545;-84
2021/10/23 02:44:43;;;;;;;2.47;0.90;;;;;;;17.21;59.13;102528.38;4882380;29;20092;-84
2021/10/23 02:47:09;;;;;;;2.30;0.85;;;;;;;17.19;58.84;102522.28;4883174;29;20036;-85
2021/10/23 02:49:35;;;;;;;2.05;0.90;;;;;;;17.18;59.27;102517.94;4900007;29;20434;-84
2021/10/23 02:52:01;;;;;;;2.28;0.70;;;;;;;17.18;59.01;102525.72;4867549;29;20033;-84
2021/10/23 02:54:27;;;;;;;2.78;0.73;;;;;;;17.19;59.00;102526.59;4852303;29;20032;-84
2021/10/23 02:56:53;;;;;;;1.58;0.70;;;;;;;17.20;58.98;102528.34;4867834;29;20028;-83
2021/10/23 02:59:18;;;;;;;1.63;0.65;;;;;;;17.20;58.93;102525.75;4899723;29;20025;-84
2021/10/23 03:01:44;;;;;;;2.28;0.70;;;;;;;17.19;59.07;102530.06;4867528;29;20044;-83
2021/10/23 03:04:09;;;;;;;1.20;0.68;;;;;;;17.19;58.94;102531.81;4882734;29;20040;-83
2021/10/23 03:06:35;;;;;;;1.65;0.80;;;;;;;17.18;58.99;102535.25;4851849;29;20178;-86
2021/10/23 03:09:00;;;;;;;1.50;0.60;;;;;;;17.17;59.25;102531.78;4882719;29;20394;-84
2021/10/23 03:11:26;;;;;;;1.63;0.65;;;;;;;17.18;59.06;102538.75;4867199;29;20492;-85
2021/10/23 03:13:51;;;;;;;1.80;0.65;;;;;;;17.19;58.94;102545.69;4882710;29;20021;-85
2021/10/23 03:16:17;;;;;;;1.20;0.50;;;;;;;17.18;59.03;102556.06;4882631;29;20028;-84
2021/10/23 03:18:42;;;;;;;1.55;0.60;;;;;;;17.18;59.12;102556.94;4898508;29;20123;-85
2021/10/23 03:21:08;;;;;;;1.30;0.70;;;;;;;17.17;58.99;102555.19;4867107;29;20033;-84
2021/10/23 03:23:33;;;;;;;1.38;0.70;;;;;;;17.18;59.04;102558.66;4867321;29;20028;-85
2021/10/23 03:25:58;;;;;;;1.90;0.70;;;;;;;17.18;59.02;102566.47;4867119;29;20127;-84
2021/10/23 03:28:24;;;;;;;1.50;0.65;;;;;;;17.18;59.42;102566.47;4866986;29;20055;-86
2021/10/23 03:30:50;;;;;;;0.98;0.60;;;;;;;17.16;58.97;102566.44;4882496;29;20091;-85
2021/10/23 03:33:15;;;;;;;2.15;0.70;;;;;;;17.18;59.09;102563.84;4866839;29;20492;-84
2021/10/23 03:35:41;;;;;;;1.90;0.60;;;;;;;17.17;59.14;102559.50;4882410;29;20031;-80
2021/10/23 03:38:09;;;;;;;1.58;0.60;;;;;;;17.16;59.04;102557.75;4882769;29;20032;-84
2021/10/23 03:40:35;;;;;;;1.45;0.75;;;;;;;17.16;59.09;102560.34;4899051;29;20136;-84
2021/10/23 03:43:00;;;;;;;2.10;0.70;;;;;;;17.16;58.89;102562.94;4866749;29;20123;-83
2021/10/23 03:45:26;;;;;;;1.38;0.60;;;;;;;17.15;58.88;102564.69;4866723;29;20123;-84
2021/10/23 03:47:51;;;;;;;1.58;0.60;;;;;;;17.16;58.92;102573.34;4851311;29;20067;-85
2021/10/23 03:50:17;;;;;;;1.40;0.50;;;;;;;17.15;58.97;102567.28;4882175;29;20044;-84
2021/10/23 03:52:42;;;;;;;1.45;0.65;;;;;;;17.14;59.20;102562.94;4882378;29;20029;-81
2021/10/23 03:55:10;;;;;;;3.03;0.85;;;;;;;17.15;59.11;102572.47;4866611;29;20033;-83
2021/10/23 03:57:36;;;;;;;1.38;0.60;;;;;;;17.15;59.08;102566.41;4881690;29;20513;-82
2021/10/23 04:00:04;;;;;;;1.60;0.60;;;;;;;17.15;58.66;102566.41;4866567;29;20033;-84
2021/10/23 04:02:30;;;;;;;1.20;0.55;;;;;;;17.13;58.92;102566.38;4881859;29;20032;-83
2021/10/23 04:04:55;;;;;;;1.55;0.82;;;;;;;17.13;59.00;102568.97;4881664;29;20032;-84
2021/10/23 04:07:20;;;;;;;1.23;0.70;;;;;;;17.15;58.92;102561.22;4866360;29;20058;-84
2021/10/23 04:09:46;;;;;;;1.70;0.70;;;;;;;17.14;59.23;102556.88;4881685;29;20037;-84
2021/10/23 04:12:11;;;;;;;1.73;0.80;;;;;;;17.14;58.98;102551.66;4866372;29;20431;-84
2021/10/23 04:14:37;;;;;;;1.27;0.60;;;;;;;17.15;58.84;102561.22;4850910;29;20036;-85
2021/10/23 04:17:02;;;;;;;1.65;0.70;;;;;;;17.14;59.08;102552.53;4850941;29;20092;-84
2021/10/23 04:19:27;;;;;;;1.00;0.60;;;;;;;17.13;58.85;102552.50;4866514;29;20057;-84
2021/10/23 04:21:53;;;;;;;1.88;0.60;;;;;;;17.12;59.00;102556.81;4881897;29;20055;-84
2021/10/23 04:24:18;;;;;;;1.73;0.70;;;;;;;17.13;59.09;102557.69;4850980;29;20032;-84
2021/10/23 04:26:44;;;;;;;1.52;0.70;;;;;;;17.13;59.10;102555.09;4850808;29;20040;-83
2021/10/23 04:29:09;;;;;;;1.75;0.60;;;;;;;17.11;58.91;102568.06;4850602;29;20516;-85
2021/10/23 04:31:34;;;;;;;1.48;0.57;;;;;;;17.11;59.34;102565.47;4850713;29;20084;-85
2021/10/23 04:34:02;;;;;;;1.30;0.60;;;;;;;17.11;58.97;102564.59;4898503;29;20032;-85
2021/10/23 04:36:29;;;;;;;0.80;0.50;;;;;;;17.11;59.24;102573.25;4881845;29;20033;-84
2021/10/23 04:38:55;;;;;;;1.02;0.47;;;;;;;17.11;58.96;102570.66;4866368;29;20031;-85
2021/10/23 04:41:20;;;;;;;2.00;0.63;;;;;;;17.11;59.19;102573.25;4866197;29;20033;-85
2021/10/23 04:43:46;;;;;;;0.90;0.50;;;;;;;17.10;59.02;102566.31;4881832;29;20124;-84
2021/10/23 04:46:11;;;;;;;1.58;0.60;;;;;;;17.11;59.01;102569.78;4851234;29;20496;-84
2021/10/23 04:48:37;;;;;;;1.63;0.57;;;;;;;17.11;59.02;102575.00;4851022;29;20075;-85
2021/10/23 04:51:03;;;;;;;1.58;0.65;;;;;;;17.11;58.96;102586.28;4866338;29;20029;-85
2021/10/23 04:53:29;;;;;;;1.20;0.60;;;;;;;17.10;58.92;102581.94;4881986;29;20033;-85
2021/10/23 04:55:54;;;;;;;0.77;0.40;;;;;;;17.09;58.94;102587.97;4881765;29;20092;-83
2021/10/23 04:58:19;;;;;;;1.52;0.60;;;;;;;17.10;59.12;102589.72;4850897;29;20025;-84
2021/10/23 05:00:45;;;;;;;2.10;0.80;;;;;;;17.10;58.97;102591.47;4866249;29;20393;-85
2021/10/23 05:03:11;;;;;;;2.05;0.70;;;;;;;17.10;59.16;102594.06;4881311;29;20545;-84
2021/10/23 05:05:37;;;;;;;2.22;0.80;;;;;;;17.08;58.98;102595.75;4865984;29;20189;-84
2021/10/23 05:08:03;;;;;;;1.60;0.73;;;;;;;17.09;58.98;102600.09;4882066;29;20048;-84
2021/10/23 05:10:28;;;;;;;1.45;0.60;;;;;;;17.09;59.03;102590.56;4884934;29;20032;-85
2021/10/23 05:12:54;;;;;;;1.10;0.50;;;;;;;17.09;58.97;102603.56;4869314;29;20039;-84
2021/10/23 05:15:19;;;;;;;2.28;0.50;;;;;;;17.06;59.17;102599.19;4869396;29;20036;-86
2021/10/23 05:17:45;;;;;;;1.83;0.63;;;;;;;17.09;59.18;102602.69;4884871;29;20043;-85
2021/10/23 05:20:11;;;;;;;1.75;0.68;;;;;;;17.09;58.96;102610.50;4884887;29;20024;-84
2021/10/23 05:22:37;;;;;;;1.15;0.60;;;;;;;17.08;59.00;102608.75;4884499;29;20034;-84
2021/10/23 05:25:04;;;;;;;1.90;0.80;;;;;;;17.08;59.03;102604.44;4884596;29;20035;-84
2021/10/23 05:27:29;;;;;;;1.48;0.70;;;;;;;17.08;59.21;102614.84;4884734;29;20486;-86
2021/10/23 05:29:55;;;;;;;0.73;0.50;;;;;;;17.09;59.10;102613.09;4884317;29;20080;-85
2021/10/23 05:32:20;;;;;;;1.38;0.50;;;;;;;17.09;58.92;102610.50;4869066;29;20486;-84
2021/10/23 05:34:46;;;;;;;1.30;0.60;;;;;;;17.08;58.95;102607.03;4869039;29;20037;-83
2021/10/23 05:37:11;;;;;;;1.23;0.52;;;;;;;17.08;58.92;102614.84;4884627;29;20116;-84
2021/10/23 05:39:36;;;;;;;1.80;0.80;;;;;;;17.08;59.08;102612.22;4869034;29;20509;-84
2021/10/23 05:42:03;;;;;;;0.90;0.50;;;;;;;17.08;59.15;102613.97;4853403;29;20505;-86
2021/10/23 05:44:28;;;;;;;1.73;0.50;;;;;;;17.09;59.05;102616.56;4884285;29;20041;-83
2021/10/23 05:46:54;;;;;;;1.20;0.50;;;;;;;17.06;58.99;102609.59;4852876;29;20040;-84
2021/10/23 05:49:19;;;;;;;0.95;0.55;;;;;;;17.05;59.02;102610.44;4853341;29;20064;-85
2021/10/23 05:51:45;;;;;;;0.80;0.50;;;;;;;17.06;58.87;102617.41;4869294;29;20036;-85
2021/10/23 05:54:11;;;;;;;1.73;0.60;;;;;;;17.06;59.14;102617.41;4884542;29;20111;-84
2021/10/23 05:56:36;;;;;;;1.25;0.60;;;;;;;17.06;58.98;102617.41;4884558;29;20053;-83
2021/10/23 05:59:11;;;;;;;0.70;0.40;;;;;;;17.06;59.00;102620.00;4868434;29;20116;-81
2021/10/23 06:01:45;;;;;;;1.27;0.70;;;;;;;17.05;59.08;102615.66;4885409;29;20061;-83
2021/10/23 06:04:11;;;;;;;;;;;;;;;17.07;59.12;102628.66;4884457;29;20501;-81
2021/10/23 06:06:38;;;;;;;1.20;0.50;;;;;;;17.06;58.94;102621.72;4883555;29;20015;-82
2021/10/23 06:09:04;;;;;;;1.15;0.70;;;;;;;17.06;59.02;102626.94;4899217;29;20556;-83
2021/10/23 06:11:30;;;;;;;1.33;0.60;;;;;;;17.08;59.05;102634.78;4883858;29;20028;-84
2021/10/23 06:13:58;;;;;;;1.98;0.68;;;;;;;17.05;59.09;102639.06;4868284;29;20024;-84
2021/10/23 06:16:24;;;;;;;1.80;0.60;;;;;;;17.06;59.16;102640.81;4883820;29;20028;-84
2021/10/23 06:18:49;;;;;;;1.10;0.50;;;;;;;17.06;58.99;102645.13;4899097;29;20020;-84
2021/10/23 06:21:15;;;;;;;1.10;0.60;;;;;;;17.05;59.00;102639.06;4867599;29;20056;-84
2021/10/23 06:23:41;;;;;;;1.25;0.55;;;;;;;17.07;59.04;102644.28;4900352;29;20120;-82
2021/10/23 06:26:06;;;;;;;0.93;0.55;;;;;;;17.07;59.05;102641.69;4852736;29;20519;-83
2021/10/23 06:28:36;;;;;;;1.02;0.57;;;;;;;17.06;59.12;102638.19;4867983;29;20029;-84
2021/10/23 06:31:05;;;;;;;0.90;0.50;;;;;;;17.06;59.22;102640.81;4868316;29;20090;-85
2021/10/23 06:33:31;;;;;;;2.58;0.60;;;;;;;17.08;58.99;102656.44;4852999;29;20024;-83
2021/10/23 06:35:57;;;;;;;1.35;0.70;;;;;;;17.07;58.84;102657.28;4883370;29;20033;-83
2021/10/23 06:38:22;;;;;;;1.02;0.60;;;;;;;17.08;59.03;102655.59;4883479;29;20023;-83
2021/10/23 06:40:48;;;;;;;1.52;0.55;;;;;;;17.08;59.02;102660.78;4852668;29;20036;-84
2021/10/23 06:43:13;;;;;;;1.02;0.60;;;;;;;17.08;59.12;102669.47;4867910;29;20504;-80
2021/10/23 06:45:39;;;;;;;0.75;0.50;;;;;;;17.09;58.87;102671.19;4867832;29;20087;-83
2021/10/23 06:48:10;;;;;;;1.60;0.60;;;;;;;17.07;58.84;102670.28;4899897;29;20056;-83
2021/10/23 06:50:35;;;;;;;1.23;0.60;;;;;;;17.09;58.98;102678.13;4883091;29;20123;-84
2021/10/23 06:53:00;;;;;;;2.47;0.85;;;;;;;17.09;59.00;102685.94;4883378;29;20111;-85
2021/10/23 06:55:26;;;;;;;1.23;0.55;;;;;;;17.06;59.07;102681.56;4852521;29;20088;-82
2021/10/23 06:57:51;;;;;;;0.60;0.40;;;;;;;17.07;58.81;102683.28;4852093;29;20570;-82
2021/10/23 07:00:17;;;;;;;1.08;0.60;;;;;;;17.09;59.10;102693.75;4867652;29;20525;-85
2021/10/23 07:02:45;;;;;;;2.42;0.73;;;;;;;17.08;58.95;102695.47;4882939;29;20119;-81
2021/10/23 07:05:18;;;;;;;1.13;0.55;;;;;;;17.09;58.78;102688.53;4867207;29;20043;-82
2021/10/23 07:07:44;;;;;;;1.38;0.55;;;;;;;17.10;58.92;102687.72;4867164;29;20048;-82
2021/10/23 07:10:11;;;;;;;1.23;0.65;;;;;;;17.10;58.85;102693.78;4882585;29;20091;-84
2021/10/23 07:12:37;;;;;;;1.45;0.60;;;;;;;17.12;58.64;102706.84;4882674;29;20067;-83
2021/10/23 07:15:04;;;;;;;2.22;0.63;;;;;;;17.14;58.74;102697.34;4882685;29;20128;-81
2021/10/23 07:17:29;;;;;;;1.08;0.60;;;;;;;17.14;58.82;102707.75;4867104;29;20028;-84
2021/10/23 07:19:55;;;;;;;1.85;0.60;;;;;;;17.11;58.47;102708.53;4899254;29;20032;-85
2021/10/23 07:22:21;;;;;;;0.95;0.57;;;;;;;17.12;58.70;102717.25;4867397;29;20080;-84
2021/10/23 07:24:47;;;;;;;1.10;0.50;;;;;;;17.11;58.93;102713.72;4866887;29;20068;-82
2021/10/23 07:27:12;;;;;;;1.45;0.50;;;;;;;17.11;58.85;102721.53;4867006;29;20493;-85
2021/10/23 07:29:37;;;;;;;1.30;0.50;;;;;;;17.12;58.79;102722.44;4882291;29;20028;-85
2021/10/23 07:32:03;;;;;;;0.82;0.40;;;;;;;17.10;59.01;102729.34;4882066;29;20462;-85
2021/10/23 07:34:28;;;;;;;0.98;0.50;;;;;;;17.09;58.95;102728.44;4882172;29;20482;-85
2021/10/23 07:36:54;;;;;;;0.98;0.50;;;;;;;17.09;58.92;102725.81;4882231;29;20123;-83
2021/10/23 07:39:19;;;;;;;1.13;0.50;;;;;;;17.10;58.70;102717.19;4851352;29;20032;-84
2021/10/23 07:41:46;;;;;;;1.67;0.50;;;;;;;17.11;58.89;102725.88;4898776;29;20032;-83
2021/10/23 07:44:12;;;;;;;1.83;0.70;;;;;;;17.12;58.74;102719.84;4882143;29;20025;-85
2021/10/23 07:46:38;;;;;;;1.20;0.57;;;;;;;17.13;58.79;102725.06;4882093;29;20116;-84
2021/10/23 07:49:06;;;;;;;0.93;0.60;;;;;;;17.12;58.88;102730.25;4897501;29;20037;-82
2021/10/23 07:51:32;;;;;;;2.30;0.70;;;;;;;17.13;58.69;102729.38;4881930;29;20033;-86
2021/10/23 07:53:57;;;;;;;1.50;0.57;;;;;;;17.12;58.63;102736.31;4851103;29;20111;-83
2021/10/23 07:56:23;;;;;;;1.45;0.60;;;;;;;17.10;58.91;102732.81;4866414;29;20463;-83
2021/10/23 07:58:48;;;;;;;0.82;0.32;;;;;;;17.11;58.87;102733.66;4851164;29;20080;-82
2021/10/23 08:01:15;;;;;;;1.20;0.50;;;;;;;17.10;58.88;102729.34;4866634;29;20371;-83
2021/10/23 08:03:41;;;;;;;0.98;0.50;;;;;;;17.11;59.04;102734.53;4882031;29;20397;-81
2021/10/23 08:06:07;;;;;;;1.88;0.73;;;;;;;17.12;58.95;102744.13;4881638;29;20036;-83
2021/10/23 08:08:32;;;;;;;1.45;0.60;;;;;;;17.13;58.75;102743.25;4866225;29;20035;-80
2021/10/23 08:10:59;;;;;;;2.13;0.60;;;;;;;17.16;58.60;102747.66;4898492;29;20037;-82
2021/10/23 08:13:26;;;;;;;0.93;0.50;;;;;;;17.18;58.66;102753.78;4898454;29;20029;-85
2021/10/23 08:15:52;;;;;;;0.95;0.52;;;;;;;17.19;58.40;102753.81;4881671;29;20039;-84
2021/10/23 08:18:18;;;;;;;1.35;0.60;;;;;;;17.21;58.72;102754.72;4881694;29;20028;-82
2021/10/23 08:20:45;;;;;;;1.35;0.60;;;;;;;17.20;58.53;102757.28;4897270;29;20042;-82
2021/10/23 08:23:11;;;;;;;1.92;0.50;;;;;;;17.20;58.48;102762.50;4866206;29;20043;-85
2021/10/23 08:25:36;;;;;;;1.08;0.60;;;;;;;17.20;58.72;102765.09;4866053;29;20119;-82
2021/10/23 08:28:02;;;;;;;1.58;0.70;;;;;;;17.20;58.69;102765.09;4881487;29;20064;-80
2021/10/23 08:30:28;;;;;;;1.42;0.77;;;;;;;17.20;58.53;102765.09;4881478;29;20028;-81
2021/10/23 08:32:54;;;;;;;1.65;0.60;;;;;;;17.20;58.38;102768.59;4881241;29;20029;-82
2021/10/23 08:35:19;;;;;;;0.90;0.40;;;;;;;17.19;58.61;102772.03;4865794;29;20062;-85
2021/10/23 08:37:46;;;;;;;1.95;0.60;;;;;;;17.20;58.60;102770.28;4897246;29;20401;-85
2021/10/23 08:40:13;;;;;;;1.00;0.57;;;;;;;17.19;58.80;102763.34;4881838;29;20024;-86
2021/10/23 08:42:39;;;;;;;2.50;0.50;;;;;;;17.18;58.71;102759.88;4866555;29;20486;-85
2021/10/23 08:45:07;;;;;;;1.35;0.60;;;;;;;17.19;58.47;102765.94;4885920;29;20036;-85
2021/10/23 08:47:38;;;;;;;1.00;0.60;;;;;;;17.18;58.62;102767.69;4885761;29;20398;-85
2021/10/23 08:50:06;;;;;;;0.60;0.50;;;;;;;17.18;58.74;102758.97;4902177;29;20028;-84
2021/10/23 08:52:31;;;;;;;1.65;0.65;;;;;;;17.15;58.64;102759.78;4885209;29;20127;-86
2021/10/23 08:54:57;;;;;;;1.63;0.57;;;;;;;17.15;58.87;102764.13;4869675;29;20192;-84
2021/10/23 08:57:26;;;;;;;0.95;0.50;;;;;;;17.14;58.99;102765.84;4900687;29;20068;-83
2021/10/23 09:00:00;;;;;;;1.70;0.60;;;;;;;17.16;58.78;102761.56;4885595;29;20065;-84
2021/10/23 09:02:27;;;;;;;1.75;0.60;;;;;;;17.17;58.85;102760.69;4900556;29;20031;-85
2021/10/23 09:04:54;;;;;;;0.90;0.47;;;;;;;17.18;58.70;102762.47;4885063;29;20028;-84
2021/10/23 09:07:22;;;;;;;1.23;0.60;;;;;;;17.21;58.80;102764.28;4884717;29;20057;-82
2021/10/23 09:09:49;;;;;;;1.38;0.68;;;;;;;17.20;58.77;102767.69;4900637;29;20040;-85
2021/10/23 09:12:21;;;;;;;1.40;0.50;;;;;;;17.19;58.61;102771.16;4885016;29;20024;-84
2021/10/23 09:14:47;;;;;;;0.90;0.50;;;;;;;17.17;58.82;102778.03;4884790;29;20508;-83
2021/10/23 09:17:15;;;;;;;1.52;0.60;;;;;;;17.16;58.90;102768.47;4901751;29;20107;-85
2021/10/23 09:19:45;;;;;;;1.17;0.63;;;;;;;17.15;58.60;102775.41;4900593;29;20576;-84
2021/10/23 09:22:32;;;;;;;1.20;0.57;;;;;;;17.15;58.87;102777.13;4884695;29;20064;-84
2021/10/23 09:25:10;;;;;;;1.08;0.60;;;;;;;17.14;58.92;102772.78;4900457;29;20036;-84
2021/10/23 09:27:44;;;;;;;1.02;0.40;;;;;;;17.15;59.00;102782.34;4900880;29;20103;-84
2021/10/23 09:30:14;;;;;;;0.52;0.40;;;;;;;17.15;58.84;102771.94;4884759;29;20040;-85
2021/10/23 09:32:40;;;;;;;1.20;0.60;;;;;;;17.17;59.22;102783.25;4901263;29;20032;-82
2021/10/23 09:35:15;;;;;;;1.08;0.52;;;;;;;17.16;58.96;102776.28;4869749;29;20510;-85
2021/10/23 09:37:43;;;;;;;1.27;0.50;;;;;;;17.17;58.91;102778.91;4884336;29;20071;-85
2021/10/23 09:40:09;;;;;;;2.10;0.70;;;;;;;17.16;58.85;102786.69;4900424;29;20028;-84
2021/10/23 09:42:35;;;;;;;0.98;0.60;;;;;;;17.16;58.67;102787.59;4901334;29;20033;-86
2021/10/23 09:45:04;;;;;;;1.98;0.60;;;;;;;17.16;58.90;102784.97;4901047;29;20088;-85
2021/10/23 09:47:35;;;;;;;1.33;0.45;;;;;;;17.15;58.98;102782.34;4900238;29;20032;-85
2021/10/23 09:50:06;;;;;;;0.80;0.50;;;;;;;17.14;58.86;102793.59;4901057;29;20031;-83
2021/10/23 09:53:03;;;;;;;0.77;0.47;;;;;;;17.12;59.19;102784.88;4884019;29;20028;-85
2021/10/23 09:55:33;;;;;;;0.77;0.50;;;;;;;17.12;58.94;102795.28;4883823;29;20033;-83
2021/10/23 09:58:22;;;;;;;2.30;0.63;;;;;;;17.12;59.19;102796.16;4899636;29;20044;-84
2021/10/23 10:00:49;;;;;;;1.50;0.45;;;;;;;17.12;59.19;102797.88;4900813;29;20028;-80
2021/10/23 10:03:17;;;;;;;1.33;0.65;;;;;;;17.12;59.07;102790.06;4884043;29;20039;-83
2021/10/23 10:05:43;;;;;;;1.63;0.70;;;;;;;17.12;59.10;102796.16;4883961;29;20025;-83
2021/10/23 10:08:10;;;;;;;1.42;0.68;;;;;;;17.12;59.25;102795.28;4883774;29;20127;-81
2021/10/23 10:10:44;;;;;;;1.15;0.57;;;;;;;17.11;58.84;102791.78;4883924;29;20035;-84
2021/10/23 10:13:24;;;;;;;1.08;0.60;;;;;;;17.12;59.12;102803.09;4899417;29;20051;-81
2021/10/23 10:16:02;;;;;;;1.27;0.55;;;;;;;17.10;59.17;102799.56;4899317;29;20115;-83
2021/10/23 10:18:27;;;;;;;1.30;0.70;;;;;;;17.12;59.15;102808.28;4884389;29;20052;-83
2021/10/23 10:20:56;;;;;;;1.35;0.70;;;;;;;17.12;59.02;102810.88;4899550;29;20434;-80
2021/10/23 10:23:33;;;;;;;1.92;0.90;;;;;;;17.11;59.05;102809.13;4883824;29;20497;-84
2021/10/23 10:26:14;;;;;;;1.60;0.68;;;;;;;17.13;59.07;102808.31;4883821;29;20047;-83
2021/10/23 10:31:45;;;;;;;1.52;0.70;;;;;;;17.14;59.06;102804.88;4900649;29;20036;-82
2021/10/23 10:34:15;;;;;;;1.00;0.60;;;;;;;17.17;58.88;102804.94;4883468;29;20178;-82
2021/10/23 10:42:59;;;;;;;1.23;0.73;;;;;;;17.25;58.98;102799.91;4900506;29;20074;-83
2021/10/23 10:45:34;;;;;;;1.70;0.60;;;;;;;17.24;58.62;102801.63;4883180;29;20385;-83
2021/10/23 10:48:34;;;;;;;1.48;0.70;;;;;;;17.27;58.71;102803.44;4898943;29;20031;-85
2021/10/23 10:51:14;;;;;;;0.98;0.60;;;;;;;17.28;58.62;102799.97;4883204;29;20036;-83
2021/10/23 10:54:03;;;;;;;1.55;0.70;;;;;;;17.27;58.86;102804.31;4883150;29;20177;-83
2021/10/23 10:56:47;;;;;;;2.30;0.50;;;;;;;17.26;59.08;102801.66;4883164;29;20025;-82
2021/10/23 10:59:51;;;;;;;0.98;0.60;;;;;;;17.27;58.71;102796.50;4898659;29;20029;-84
2021/10/23 11:02:30;;;;;;;1.60;0.60;;;;;;;17.26;58.70;102789.53;4883157;29;20035;-85
2021/10/23 11:05:17;;;;;;;1.10;0.60;;;;;;;17.25;58.62;102785.19;4898362;29;20119;-85
2021/10/23 11:08:06;;;;;;;1.10;0.60;;;;;;;17.25;58.72;102792.13;4882433;29;20069;-84
2021/10/23 11:10:48;;;;;;;1.23;0.68;;;;;;;17.24;58.94;102796.41;4898399;29;20094;-81
2021/10/23 11:13:28;;;;;;;1.42;0.57;;;;;;;17.22;58.57;102792.03;4882848;29;20037;-81
2021/10/23 11:15:54;;;;;;;1.42;0.75;;;;;;;17.20;59.33;102784.22;4899704;29;20542;-82
2021/10/23 11:18:21;;;;;;;1.35;0.68;;;;;;;17.21;59.04;102792.88;4882742;29;20033;-84
2021/10/23 11:20:47;;;;;;;1.23;0.60;;;;;;;17.21;58.90;102790.28;4882570;29;20033;-83
2021/10/23 11:23:21;;;;;;;1.13;0.68;;;;;;;17.18;58.79;102785.91;4882419;29;20040;-84
2021/10/23 11:25:51;;;;;;;1.00;0.60;;;;;;;17.19;58.91;102794.56;4882437;29;20027;-84
2021/10/23 11:28:16;;;;;;;0.82;0.55;;;;;;;17.17;58.73;102794.53;4899260;29;20056;-85
2021/10/23 11:30:45;;;;;;;1.33;0.50;;;;;;;17.17;59.05;102804.06;4882470;29;20067;-83
2021/10/23 11:33:14;;;;;;;1.55;0.70;;;;;;;17.17;59.02;102806.66;4882699;29;20461;-84
2021/10/23 11:35:51;;;;;;;0.93;0.45;;;;;;;17.16;58.96;102807.50;4882406;29;20112;-85